createdAt,value
2017-10-17T00:00:05.644Z,76
2017-10-17T00:00:46.031Z,76.1
2017-10-17T00:01:26.429Z,75.71
2017-10-17T00:02:06.859Z,75.9
2017-10-17T00:02:47.194Z,75.62
2017-10-17T00:03:27.593Z,75.9
2017-10-17T00:04:08.041Z,75.81
2017-10-17T00:04:48.468Z,76
2017-10-17T00:05:28.851Z,76.19
2017-10-17T00:06:09.259Z,76.39
2017-10-17T00:06:49.692Z,75.9
2017-10-17T00:07:30.149Z,76.57
2017-10-17T00:08:10.490Z,76.29
2017-10-17T00:08:50.918Z,76.48
2017-10-17T00:09:31.295Z,76.29
2017-10-17T00:10:11.729Z,76.48
2017-10-17T00:10:52.158Z,76.67
2017-10-17T00:11:32.558Z,76.48
2017-10-17T00:12:12.986Z,76.29
2017-10-17T00:12:53.334Z,76.57
2017-10-17T00:13:33.773Z,76.29
2017-10-17T00:14:14.192Z,76.48
2017-10-17T00:14:54.649Z,76.57
2017-10-17T00:15:34.987Z,76.57
2017-10-17T00:16:15.392Z,76.29
2017-10-17T00:16:55.819Z,76.29
2017-10-17T00:17:36.155Z,76.86
2017-10-17T00:18:16.599Z,76.77
2017-10-17T00:18:57.040Z,76.77
2017-10-17T00:19:37.426Z,76.96
2017-10-17T00:20:17.838Z,76.77
2017-10-17T00:20:58.245Z,76.57
2017-10-17T00:21:38.697Z,76.86
2017-10-17T00:22:19.090Z,76.48
2017-10-17T00:22:59.449Z,76.48
2017-10-17T00:23:39.868Z,76.67
2017-10-17T00:24:20.392Z,76.57
2017-10-17T00:25:00.923Z,77.06
2017-10-17T00:25:41.300Z,76.77
2017-10-17T00:26:21.811Z,76.77
2017-10-17T00:27:02.286Z,76.77
2017-10-17T00:27:42.678Z,76.48
2017-10-17T00:28:23.064Z,76.86
2017-10-17T00:29:03.531Z,76.86
2017-10-17T00:29:44.013Z,76.67
2017-10-17T00:30:24.371Z,77.25
2017-10-17T00:31:04.785Z,77.15
2017-10-17T00:31:45.216Z,76.96
2017-10-17T00:32:25.660Z,77.44
2017-10-17T00:33:06.118Z,77.63
2017-10-17T00:33:46.562Z,77.25
2017-10-17T00:34:26.947Z,77.73
2017-10-17T00:35:07.348Z,77.21
2017-10-17T00:35:47.838Z,77.53
2017-10-17T00:36:28.120Z,77.44
2017-10-17T00:37:08.592Z,77.31
2017-10-17T00:37:48.988Z,77.34
2017-10-17T00:38:29.396Z,76.92
2017-10-17T00:39:09.819Z,77.11
2017-10-17T00:39:50.232Z,77.34
2017-10-17T00:40:30.635Z,77.59
2017-10-17T00:41:10.974Z,78.11
2017-10-17T00:41:51.497Z,77.92
2017-10-17T00:42:31.814Z,78.11
2017-10-17T00:43:12.220Z,77.88
2017-10-17T00:43:52.733Z,77.59
2017-10-17T00:44:33.100Z,77.4
2017-10-17T00:45:13.621Z,77.63
2017-10-17T00:45:53.991Z,77.5
2017-10-17T00:46:34.388Z,77.78
2017-10-17T00:47:14.801Z,77.53
2017-10-17T00:47:55.313Z,78.07
2017-10-17T00:48:35.739Z,77.78
2017-10-17T00:49:16.130Z,77.59
2017-10-17T00:49:56.533Z,77.44
2017-10-17T00:50:36.962Z,77.53
2017-10-17T00:51:17.345Z,77.63
2017-10-17T00:51:57.885Z,77.92
2017-10-17T00:52:38.285Z,77.82
2017-10-17T00:53:18.749Z,77.92
2017-10-17T00:53:59.164Z,77.44
2017-10-17T00:54:39.595Z,77.59
2017-10-17T00:55:19.964Z,77.5
2017-10-17T00:56:00.457Z,77.97
2017-10-17T00:56:40.833Z,77.92
2017-10-17T00:57:21.272Z,77.97
2017-10-17T00:58:01.666Z,77.88
2017-10-17T00:58:42.039Z,77.59
2017-10-17T00:59:22.454Z,77.88
2017-10-17T01:00:02.886Z,77.88
2017-10-17T01:00:43.195Z,77.97
2017-10-17T01:01:23.611Z,78.07
2017-10-17T01:02:04.057Z,77.97
2017-10-17T01:02:44.473Z,78.64
2017-10-17T01:03:24.849Z,77.97
2017-10-17T01:04:05.326Z,77.97
2017-10-17T01:04:45.685Z,78.55
2017-10-17T01:05:26.070Z,78.36
2017-10-17T01:06:06.442Z,78.07
2017-10-17T01:06:46.950Z,78.45
2017-10-17T01:07:27.389Z,78.36
2017-10-17T01:08:07.867Z,78.45
2017-10-17T01:08:48.303Z,78.55
2017-10-17T01:09:28.733Z,79.13
2017-10-17T01:10:09.289Z,78.84
2017-10-17T01:10:49.732Z,79.13
2017-10-17T01:11:30.111Z,79.03
2017-10-17T01:12:10.609Z,79.03
2017-10-17T01:12:50.981Z,78.84
2017-10-17T01:13:31.398Z,79.03
2017-10-17T01:14:11.813Z,79.32
2017-10-17T01:14:52.202Z,78.64
2017-10-17T01:15:32.635Z,78.74
2017-10-17T01:16:13.087Z,79.03
2017-10-17T01:16:53.517Z,78.84
2017-10-17T01:17:33.964Z,78.64
2017-10-17T01:18:14.441Z,79.03
2017-10-17T01:18:54.758Z,78.74
2017-10-17T01:19:35.180Z,79.03
2017-10-17T01:20:15.603Z,79.03
2017-10-17T01:20:56.012Z,79.03
2017-10-17T01:21:36.403Z,79.32
2017-10-17T01:22:16.813Z,79.03
2017-10-17T01:22:57.227Z,78.64
2017-10-17T01:23:37.666Z,78.64
2017-10-17T01:24:18.031Z,79.03
2017-10-17T01:24:58.538Z,78.84
2017-10-17T01:25:38.951Z,79.32
2017-10-17T01:26:19.309Z,78.64
2017-10-17T01:26:59.718Z,78.74
2017-10-17T01:27:40.123Z,78.64
2017-10-17T01:28:20.582Z,78.55
2017-10-17T01:29:00.948Z,78.55
2017-10-17T01:29:41.336Z,78.64
2017-10-17T01:30:21.791Z,78.45
2017-10-17T01:31:02.170Z,78.84
2017-10-17T01:31:42.603Z,79.13
2017-10-17T01:32:22.967Z,78.64
2017-10-17T01:33:03.468Z,79.03
2017-10-17T01:33:43.938Z,78.64
2017-10-17T01:34:24.315Z,78.55
2017-10-17T01:35:04.757Z,78.74
2017-10-17T01:35:45.178Z,78.36
2017-10-17T01:36:25.612Z,78.74
2017-10-17T01:37:05.951Z,78.84
2017-10-17T01:37:46.363Z,78.36
2017-10-17T01:38:26.785Z,78.27
2017-10-17T01:39:07.202Z,78.45
2017-10-17T01:39:47.666Z,78.45
2017-10-17T01:40:28.118Z,78.64
2017-10-17T01:41:08.496Z,78.64
2017-10-17T01:41:48.958Z,78.64
2017-10-17T01:42:29.338Z,78.64
2017-10-17T01:43:09.736Z,78.07
2017-10-17T01:43:50.252Z,78.36
2017-10-17T01:44:30.629Z,78.45
2017-10-17T01:45:11.029Z,78.36
2017-10-17T01:45:51.418Z,78.27
2017-10-17T01:46:31.855Z,78.45
2017-10-17T01:47:12.261Z,78.55
2017-10-17T01:47:52.760Z,78.55
2017-10-17T01:48:33.271Z,78.36
2017-10-17T01:49:13.700Z,78.36
2017-10-17T01:49:54.258Z,78.45
2017-10-17T01:50:34.815Z,78.07
2017-10-17T01:51:15.200Z,78.45
2017-10-17T01:51:55.555Z,78.45
2017-10-17T01:52:35.894Z,77.59
2017-10-17T01:53:16.317Z,77.88
2017-10-17T01:53:56.729Z,78.64
2017-10-17T01:54:37.071Z,78.36
2017-10-17T01:55:17.500Z,78.55
2017-10-17T01:55:58.030Z,78.45
2017-10-17T01:56:38.387Z,78.55
2017-10-17T01:57:18.918Z,77.97
2017-10-17T01:57:59.363Z,78.07
2017-10-17T01:58:39.811Z,78.36
2017-10-17T01:59:20.204Z,77.88
2017-10-17T02:00:00.737Z,77.97
2017-10-17T02:00:41.194Z,78.17
2017-10-17T02:01:21.546Z,77.88
2017-10-17T02:02:02.025Z,77.59
2017-10-17T02:02:42.410Z,77.88
2017-10-17T02:03:22.840Z,77.59
2017-10-17T02:04:03.233Z,77.88
2017-10-17T02:04:43.618Z,77.97
2017-10-17T02:05:24.050Z,78.45
2017-10-17T02:06:04.434Z,78.27
2017-10-17T02:06:44.873Z,77.97
2017-10-17T02:07:25.227Z,77.78
2017-10-17T02:08:05.655Z,77.78
2017-10-17T02:08:46.064Z,78.07
2017-10-17T02:09:26.516Z,77.69
2017-10-17T02:10:06.920Z,77.59
2017-10-17T02:10:47.295Z,77.97
2017-10-17T02:11:27.665Z,77.78
2017-10-17T02:12:08.143Z,77.69
2017-10-17T02:12:48.504Z,78.17
2017-10-17T02:13:28.924Z,78.36
2017-10-17T02:14:09.305Z,78.07
2017-10-17T02:14:49.751Z,78.27
2017-10-17T02:15:30.214Z,78.45
2017-10-17T02:16:10.602Z,78.27
2017-10-17T02:16:50.999Z,78.55
2017-10-17T02:17:31.409Z,78.36
2017-10-17T02:18:11.883Z,78.93
2017-10-17T02:18:52.178Z,78.74
2017-10-17T02:19:32.653Z,78.17
2017-10-17T02:20:13.050Z,78.36
2017-10-17T02:20:53.476Z,78.74
2017-10-17T02:21:33.882Z,78.74
2017-10-17T02:22:14.240Z,78.64
2017-10-17T02:22:54.703Z,78.45
2017-10-17T02:23:35.170Z,78.74
2017-10-17T02:24:15.693Z,79.03
2017-10-17T02:24:56.160Z,79.22
2017-10-17T02:25:36.611Z,79.03
2017-10-17T02:26:17.036Z,78.55
2017-10-17T02:26:57.452Z,78.64
2017-10-17T02:27:37.914Z,78.55
2017-10-17T02:28:18.330Z,79.03
2017-10-17T02:28:58.751Z,79.03
2017-10-17T02:29:39.197Z,79.13
2017-10-17T02:30:19.594Z,78.93
2017-10-17T02:30:59.928Z,79.03
2017-10-17T02:31:40.358Z,78.93
2017-10-17T02:32:20.741Z,78.84
2017-10-17T02:33:01.174Z,79.03
2017-10-17T02:33:41.676Z,78.64
2017-10-17T02:34:22.153Z,79.03
2017-10-17T02:35:02.607Z,79.22
2017-10-17T02:35:43.032Z,79.22
2017-10-17T02:36:23.479Z,78.93
2017-10-17T02:37:03.900Z,79.03
2017-10-17T02:37:44.206Z,79.03
2017-10-17T02:38:24.615Z,79.03
2017-10-17T02:39:05.004Z,78.84
2017-10-17T02:39:45.445Z,78.55
2017-10-17T02:40:25.966Z,79.51
2017-10-17T02:41:06.359Z,79.32
2017-10-17T02:41:46.883Z,79.03
2017-10-17T02:42:27.237Z,79.32
2017-10-17T02:43:07.810Z,79.41
2017-10-17T02:43:48.222Z,79.22
2017-10-17T02:44:28.724Z,79.6
2017-10-17T02:45:09.457Z,79.13
2017-10-17T02:45:49.952Z,79.41
2017-10-17T02:46:30.316Z,78.74
2017-10-17T02:47:10.689Z,79.7
2017-10-17T02:47:51.103Z,79.7
2017-10-17T02:48:31.503Z,79.89
2017-10-17T02:49:11.901Z,78.93
2017-10-17T02:49:52.293Z,79.03
2017-10-17T02:50:32.890Z,79.22
2017-10-17T02:51:13.353Z,79.51
2017-10-17T02:51:53.756Z,79.51
2017-10-17T02:52:34.156Z,78.93
2017-10-17T02:53:14.618Z,78.93
2017-10-17T02:53:55.063Z,79.03
2017-10-17T02:54:35.478Z,78.93
2017-10-17T02:55:15.924Z,79.13
2017-10-17T02:55:56.256Z,78.74
2017-10-17T02:56:36.619Z,79.13
2017-10-17T02:57:17.125Z,79.51
2017-10-17T02:57:57.546Z,79.03
2017-10-17T02:58:37.996Z,78.45
2017-10-17T02:59:18.348Z,79.13
2017-10-17T02:59:58.708Z,79.08
2017-10-17T03:00:39.145Z,79.32
2017-10-17T03:01:19.583Z,79.32
2017-10-17T03:01:59.977Z,79.51
2017-10-17T03:02:40.385Z,79.99
2017-10-17T03:03:20.795Z,79.57
2017-10-17T03:04:01.230Z,79.85
2017-10-17T03:04:41.604Z,79.6
2017-10-17T03:05:22.032Z,79.66
2017-10-17T03:06:02.440Z,79.7
2017-10-17T03:06:42.917Z,79.47
2017-10-17T03:07:23.258Z,79.95
2017-10-17T03:08:03.716Z,79.75
2017-10-17T03:08:44.213Z,79.7
2017-10-17T03:09:24.605Z,79.89
2017-10-17T03:10:05.016Z,79.37
2017-10-17T03:10:45.415Z,79.66
2017-10-17T03:11:25.849Z,79.85
2017-10-17T03:12:06.282Z,80.24
2017-10-17T03:12:46.718Z,80.04
2017-10-17T03:13:27.077Z,79.99
2017-10-17T03:14:07.524Z,79.99
2017-10-17T03:14:47.916Z,79.7
2017-10-17T03:15:28.334Z,79.47
2017-10-17T03:16:08.742Z,79.57
2017-10-17T03:16:49.257Z,79.8
2017-10-17T03:17:29.673Z,79.47
2017-10-17T03:18:09.998Z,79.6
2017-10-17T03:18:50.430Z,79.18
2017-10-17T03:19:30.924Z,79.6
2017-10-17T03:20:11.311Z,79.66
2017-10-17T03:20:51.732Z,79.85
2017-10-17T03:21:32.095Z,79.47
2017-10-17T03:22:12.620Z,79.66
2017-10-17T03:22:53.012Z,79.57
2017-10-17T03:23:33.421Z,79.95
2017-10-17T03:24:13.825Z,80.24
2017-10-17T03:24:54.233Z,79.85
2017-10-17T03:25:34.673Z,79.85
2017-10-17T03:26:15.091Z,80.52
2017-10-17T03:26:55.444Z,80.71
2017-10-17T03:27:35.888Z,80.43
2017-10-17T03:28:16.298Z,79.66
2017-10-17T03:28:56.760Z,80.33
2017-10-17T03:29:37.083Z,80.04
2017-10-17T03:30:17.581Z,80.14
2017-10-17T03:30:57.900Z,80.52
2017-10-17T03:31:38.410Z,80.43
2017-10-17T03:32:18.801Z,80.43
2017-10-17T03:32:59.171Z,80.9
2017-10-17T03:33:39.573Z,80.81
2017-10-17T03:34:20.079Z,80.24
2017-10-17T03:35:00.473Z,80.33
2017-10-17T03:35:40.855Z,80.62
2017-10-17T03:36:21.219Z,81.57
2017-10-17T03:37:01.724Z,80.71
2017-10-17T03:37:42.097Z,80.43
2017-10-17T03:38:22.509Z,80.81
2017-10-17T03:39:02.843Z,80.43
2017-10-17T03:39:43.268Z,80.71
2017-10-17T03:40:23.634Z,80.71
2017-10-17T03:41:04.065Z,80.52
2017-10-17T03:41:44.429Z,81
2017-10-17T03:42:24.861Z,81.48
2017-10-17T03:43:05.311Z,81.1
2017-10-17T03:43:45.686Z,81.1
2017-10-17T03:44:26.110Z,80.52
2017-10-17T03:45:06.613Z,80.62
2017-10-17T03:45:47.086Z,80.43
2017-10-17T03:46:27.478Z,80.52
2017-10-17T03:47:07.833Z,80.81
2017-10-17T03:47:48.291Z,80.43
2017-10-17T03:48:28.733Z,80.81
2017-10-17T03:49:09.318Z,80.71
2017-10-17T03:49:49.693Z,81.29
2017-10-17T03:50:30.051Z,81.38
2017-10-17T03:51:10.451Z,81.1
2017-10-17T03:51:50.917Z,81.1
2017-10-17T03:52:31.365Z,81.29
2017-10-17T03:53:11.803Z,81.48
2017-10-17T03:53:52.134Z,81.1
2017-10-17T03:54:32.545Z,81.38
2017-10-17T03:55:13.056Z,81.77
2017-10-17T03:55:53.497Z,82.43
2017-10-17T03:56:33.985Z,82.34
2017-10-17T03:57:14.369Z,81.96
2017-10-17T03:57:54.866Z,81.77
2017-10-17T03:58:35.277Z,81.48
2017-10-17T03:59:15.742Z,81.29
2017-10-17T03:59:56.213Z,81.38
2017-10-17T04:00:36.566Z,81.38
2017-10-17T04:01:17.020Z,81.2
2017-10-17T04:01:57.374Z,81.38
2017-10-17T04:02:37.879Z,81.38
2017-10-17T04:03:18.262Z,82.24
2017-10-17T04:03:58.629Z,81.77
2017-10-17T04:04:39.071Z,81.77
2017-10-17T04:05:19.457Z,81.77
2017-10-17T04:05:59.871Z,81.38
2017-10-17T04:06:40.246Z,81.57
2017-10-17T04:07:20.695Z,81.86
2017-10-17T04:08:01.099Z,81.86
2017-10-17T04:08:41.628Z,81.2
2017-10-17T04:09:22.028Z,81.57
2017-10-17T04:10:02.407Z,81.38
2017-10-17T04:10:42.785Z,81
2017-10-17T04:11:23.249Z,82.06
2017-10-17T04:12:03.662Z,81.29
2017-10-17T04:12:44.109Z,81.67
2017-10-17T04:13:24.446Z,81.57
2017-10-17T04:14:04.929Z,81.57
2017-10-17T04:14:45.291Z,81.86
2017-10-17T04:15:26.161Z,82.24
2017-10-17T04:16:06.553Z,81.77
2017-10-17T04:16:47.106Z,82.24
2017-10-17T04:17:27.468Z,82.06
2017-10-17T04:18:07.978Z,81.67
2017-10-17T04:18:48.348Z,81.86
2017-10-17T04:19:28.851Z,82.2
2017-10-17T04:20:09.381Z,81.96
2017-10-17T04:20:49.804Z,82.43
2017-10-17T04:21:30.232Z,82.49
2017-10-17T04:22:10.696Z,81.82
2017-10-17T04:22:51.185Z,82.63
2017-10-17T04:23:31.600Z,81.63
2017-10-17T04:24:12.872Z,81.77
2017-10-17T04:24:53.283Z,82.24
2017-10-17T04:25:33.673Z,81.92
2017-10-17T04:26:14.009Z,82.2
2017-10-17T04:26:54.589Z,81.92
2017-10-17T04:27:35.123Z,82.3
2017-10-17T04:28:15.465Z,82.59
2017-10-17T04:28:55.958Z,82.68
2017-10-17T04:29:36.297Z,82.97
2017-10-17T04:30:16.847Z,82.97
2017-10-17T04:30:57.203Z,83.06
2017-10-17T04:31:37.571Z,82.97
2017-10-17T04:32:18.151Z,82.59
2017-10-17T04:32:58.704Z,83.64
2017-10-17T04:33:39.200Z,83.36
2017-10-17T04:34:19.519Z,82.68
2017-10-17T04:35:00.008Z,82.78
2017-10-17T04:35:40.372Z,82.87
2017-10-17T04:36:20.844Z,82.78
2017-10-17T04:37:01.368Z,82.78
2017-10-17T04:37:41.697Z,83.06
2017-10-17T04:38:22.165Z,82.68
2017-10-17T04:39:02.585Z,82.68
2017-10-17T04:39:43.090Z,82.97
2017-10-17T04:40:23.415Z,82.97
2017-10-17T04:41:03.844Z,82.97
2017-10-17T04:41:44.339Z,82.68
2017-10-17T04:42:24.677Z,82.68
2017-10-17T04:43:05.177Z,82.97
2017-10-17T04:43:45.716Z,83.26
2017-10-17T04:44:26.221Z,83.06
2017-10-17T04:45:06.528Z,83.36
2017-10-17T04:45:46.933Z,83.26
2017-10-17T04:46:27.417Z,83.26
2017-10-17T04:47:07.897Z,83.16
2017-10-17T04:47:48.162Z,83.36
2017-10-17T04:48:28.601Z,83.64
2017-10-17T04:49:09.007Z,83.36
2017-10-17T04:49:49.373Z,83.45
2017-10-17T04:50:29.907Z,83.16
2017-10-17T04:51:10.384Z,83.45
2017-10-17T04:51:50.855Z,83.06
2017-10-17T04:52:31.211Z,83.06
2017-10-17T04:53:11.760Z,83.06
2017-10-17T04:53:52.251Z,83.36
2017-10-17T04:54:32.681Z,83.16
2017-10-17T04:55:13.076Z,83.16
2017-10-17T04:55:53.623Z,82.97
2017-10-17T04:56:34.183Z,83.06
2017-10-17T04:57:14.639Z,84.12
2017-10-17T04:57:55.120Z,83.83
2017-10-17T04:58:35.721Z,84.02
2017-10-17T04:59:16.235Z,84.02
2017-10-17T04:59:56.616Z,83.73
2017-10-17T05:00:37.056Z,84.12
2017-10-17T05:01:17.486Z,83.93
2017-10-17T05:01:58.036Z,83.64
2017-10-17T05:02:38.385Z,83.83
2017-10-17T05:03:18.840Z,83.54
2017-10-17T05:03:59.272Z,83.54
2017-10-17T05:04:39.654Z,83.54
2017-10-17T05:05:20.073Z,83.73
2017-10-17T05:06:00.467Z,84.22
2017-10-17T05:06:40.922Z,84.22
2017-10-17T05:07:21.337Z,84.02
2017-10-17T05:08:01.772Z,84.22
2017-10-17T05:08:42.300Z,84.02
2017-10-17T05:09:22.668Z,84.02
2017-10-17T05:10:03.117Z,84.12
2017-10-17T05:10:43.706Z,84.12
2017-10-17T05:11:24.052Z,84.59
2017-10-17T05:12:04.508Z,85.08
2017-10-17T05:12:45.005Z,84.69
2017-10-17T05:13:26.481Z,84.79
2017-10-17T05:14:06.914Z,84.12
2017-10-17T05:14:47.396Z,83.45
2017-10-17T05:15:27.781Z,83.73
2017-10-17T05:16:08.210Z,83.73
2017-10-17T05:16:48.620Z,83.54
2017-10-17T05:17:28.994Z,83.73
2017-10-17T05:18:09.388Z,84.31
2017-10-17T05:18:49.902Z,84.31
2017-10-17T05:19:30.341Z,84.02
2017-10-17T05:20:10.774Z,84.02
2017-10-17T05:20:51.249Z,84.22
2017-10-17T05:21:36.638Z,84.22
2017-10-17T05:22:19.973Z,84.12
2017-10-17T05:23:00.388Z,84.12
2017-10-17T05:23:43.568Z,84.12
2017-10-17T05:24:44.693Z,83.93
2017-10-17T05:25:26.623Z,84.59
2017-10-17T05:26:11.079Z,84.41
2017-10-17T05:26:51.118Z,83.98
2017-10-17T05:27:31.598Z,84.46
2017-10-17T05:28:16.316Z,84.08
2017-10-17T05:28:56.748Z,84.36
2017-10-17T05:29:37.146Z,84.27
2017-10-17T05:30:17.871Z,84.46
2017-10-17T05:30:58.223Z,84.36
2017-10-17T05:31:38.703Z,84.27
2017-10-17T05:32:19.134Z,84.55
2017-10-17T05:32:59.523Z,84.46
2017-10-17T05:33:39.963Z,84.17
2017-10-17T05:34:20.367Z,84.55
2017-10-17T05:35:00.778Z,84.75
2017-10-17T05:35:41.202Z,84.17
2017-10-17T05:36:21.704Z,85.03
2017-10-17T05:37:02.154Z,85.22
2017-10-17T05:37:42.565Z,85.03
2017-10-17T05:38:22.979Z,85.22
2017-10-17T05:39:03.356Z,85.41
2017-10-17T05:40:04.856Z,85.41
2017-10-17T05:40:45.406Z,85.03
2017-10-17T05:41:25.914Z,84.36
2017-10-17T05:42:06.510Z,85.03
2017-10-17T05:42:47.502Z,84.17
2017-10-17T05:43:27.511Z,85.41
2017-10-17T05:44:08.092Z,84.84
2017-10-17T05:44:48.532Z,85.32
2017-10-17T05:47:34.859Z,84.41
2017-10-17T05:52:05.552Z,84.41
2017-10-17T05:52:49.267Z,83.98
2017-10-17T05:53:30.319Z,84.46
2017-10-17T05:54:10.695Z,84.46
2017-10-17T05:54:51.122Z,83.98
2017-10-17T05:55:31.566Z,84.36
2017-10-17T05:56:12.321Z,84.46
2017-10-17T05:56:52.651Z,84.46
2017-10-17T06:27:08.751Z,85.41
2017-10-17T06:27:57.652Z,85.41
2017-10-17T06:28:46.909Z,85.32
2017-10-17T06:29:37.526Z,85.22
2017-10-17T06:30:27.286Z,85.22
2017-10-17T06:31:17.868Z,86.18
2017-10-17T06:32:05.820Z,85.22
2017-10-17T06:32:54.876Z,85.51
2017-10-17T06:33:43.501Z,85.51
2017-10-17T06:34:31.962Z,85.41
2017-10-17T06:35:22.368Z,85.61
2017-10-17T06:36:11.572Z,85.99
2017-10-17T06:38:39.186Z,85.22
2017-10-17T06:39:20.237Z,84.84
2017-10-17T06:40:01.516Z,85.22
2017-10-17T06:40:43.885Z,85.51
2017-10-17T06:41:26.014Z,85.22
2017-10-17T06:42:08.248Z,85.41
2017-10-17T06:42:50.395Z,85.51
2017-10-17T06:43:30.762Z,85.51
2017-10-17T06:44:11.582Z,85.51
2017-10-17T06:44:53.232Z,85.41
2017-10-17T06:45:33.267Z,85.61
2017-10-17T06:46:14.259Z,85.41
2017-10-17T06:47:19.786Z,85.41
2017-10-17T06:48:00.235Z,85.32
2017-10-17T06:48:40.677Z,85.32
2017-10-17T06:49:21.192Z,85.8
2017-10-17T06:50:01.626Z,85.89
2017-10-17T06:50:42.149Z,85.99
2017-10-17T06:51:22.546Z,85.89
2017-10-17T06:52:02.908Z,84.84
2017-10-17T06:52:43.481Z,84.55
2017-10-17T06:53:23.978Z,84.65
2017-10-17T06:54:04.436Z,85.08
2017-10-17T06:54:45.112Z,85.13
2017-10-17T06:55:25.575Z,84.41
2017-10-17T06:56:05.981Z,84.5
2017-10-17T06:56:46.432Z,84.31
2017-10-17T06:57:27.002Z,84.22
2017-10-17T06:58:07.444Z,84.22
2017-10-17T06:58:48.000Z,84.41
2017-10-17T06:59:28.503Z,84.12
2017-10-17T07:00:08.893Z,84.02
2017-10-17T07:00:49.453Z,83.93
2017-10-17T07:01:29.922Z,83.83
2017-10-17T07:02:10.431Z,84.12
2017-10-17T07:02:50.720Z,84.31
2017-10-17T07:03:31.143Z,83.83
2017-10-17T07:04:11.690Z,84.22
2017-10-17T07:04:52.208Z,84.12
2017-10-17T07:05:32.571Z,84.59
2017-10-17T07:06:13.045Z,84.12
2017-10-17T07:06:53.413Z,84.41
2017-10-17T07:07:33.955Z,84.41
2017-10-17T07:08:14.454Z,84.88
2017-10-17T07:08:55.017Z,84.5
2017-10-17T07:09:35.451Z,84.02
2017-10-17T07:13:08.177Z,84.12
2017-10-17T07:13:49.215Z,84.31
2017-10-17T07:14:29.741Z,84.26
2017-10-17T07:15:10.282Z,83.49
2017-10-17T07:15:50.655Z,83.11
2017-10-17T07:16:31.056Z,83.45
2017-10-17T07:17:11.488Z,83.59
2017-10-17T07:17:52.137Z,84.12
2017-10-17T07:18:32.676Z,83.97
2017-10-17T07:19:14.365Z,83.11
2017-10-17T07:19:54.126Z,83.68
2017-10-17T07:20:34.715Z,83.39
2017-10-17T07:21:15.356Z,83.59
2017-10-17T07:21:55.827Z,83.39
2017-10-17T07:22:36.416Z,83.11
2017-10-17T07:23:16.779Z,82.92
2017-10-17T07:23:57.452Z,82.92
2017-10-17T07:24:38.345Z,82.92
2017-10-17T07:25:18.856Z,82.73
2017-10-17T07:25:59.232Z,82.73
2017-10-17T07:26:39.774Z,82.92
2017-10-17T07:27:20.417Z,82.92
2017-10-17T07:28:00.922Z,83.01
2017-10-17T07:28:41.375Z,83.01
2017-10-17T07:29:21.942Z,82.92
2017-10-17T07:30:02.414Z,83.11
2017-10-17T07:30:43.048Z,83.49
2017-10-17T07:31:23.391Z,82.82
2017-10-17T07:32:03.843Z,82.63
2017-10-17T07:32:44.212Z,83.11
2017-10-17T07:33:24.954Z,83.11
2017-10-17T07:34:05.633Z,82.92
2017-10-17T07:34:46.180Z,82.29
2017-10-17T07:35:27.820Z,82.53
2017-10-17T07:36:08.582Z,82.09
2017-10-17T07:36:49.087Z,82.09
2017-10-17T07:37:29.661Z,81.81
2017-10-17T07:38:10.298Z,81.52
2017-10-17T07:38:50.678Z,82.38
2017-10-17T07:39:31.436Z,81.62
2017-10-17T07:40:11.914Z,81.9
2017-10-17T07:40:52.340Z,81.9
2017-10-17T07:41:32.797Z,81.81
2017-10-17T07:42:13.279Z,81.33
2017-10-17T07:42:53.791Z,81.9
2017-10-17T07:43:34.157Z,81.52
2017-10-17T07:44:14.705Z,81.23
2017-10-17T07:44:55.040Z,81.52
2017-10-17T07:45:35.730Z,81.23
2017-10-17T07:46:16.223Z,82
2017-10-17T07:46:56.979Z,81.81
2017-10-17T07:47:37.818Z,81.52
2017-10-17T07:48:19.885Z,81.23
2017-10-17T07:49:00.140Z,80.76
2017-10-17T07:49:40.846Z,81.04
2017-10-17T07:50:21.507Z,80.66
2017-10-17T07:51:02.031Z,80.7
2017-10-17T07:51:42.443Z,80.56
2017-10-17T07:52:23.121Z,80.6
2017-10-17T07:53:04.496Z,80.66
2017-10-17T07:53:45.061Z,80.66
2017-10-17T07:54:25.597Z,80.7
2017-10-17T07:55:06.355Z,80.56
2017-10-17T07:55:48.399Z,80.79
2017-10-17T07:56:27.768Z,80.76
2017-10-17T07:57:08.257Z,80.6
2017-10-17T07:57:48.771Z,80.03
2017-10-17T07:58:29.307Z,79.93
2017-10-17T07:59:09.799Z,79.83
2017-10-17T07:59:50.537Z,80.22
2017-10-17T08:00:31.463Z,79.74
2017-10-17T08:01:12.018Z,80.22
2017-10-17T08:01:53.360Z,80.03
2017-10-17T08:02:33.214Z,80.03
2017-10-17T08:03:13.789Z,80.22
2017-10-17T08:03:54.410Z,79.74
2017-10-17T08:04:34.981Z,80.32
2017-10-17T08:05:15.473Z,79.64
2017-10-17T08:05:56.100Z,80.12
2017-10-17T08:06:36.714Z,80.12
2017-10-17T08:07:17.263Z,79.93
2017-10-17T08:07:57.794Z,80.03
2017-10-17T08:08:38.948Z,79.64
2017-10-17T08:09:20.202Z,79.74
2017-10-17T08:10:00.598Z,79.07
2017-10-17T08:10:40.967Z,79.11
2017-10-17T08:11:24.459Z,79.78
2017-10-17T08:12:05.798Z,79.49
2017-10-17T08:12:46.717Z,78.82
2017-10-17T08:13:27.297Z,78.69
2017-10-17T08:14:07.685Z,78.63
2017-10-17T08:14:48.112Z,78.92
2017-10-17T08:15:28.671Z,79.3
2017-10-17T08:16:09.217Z,78.53
2017-10-17T08:16:49.904Z,78.44
2017-10-17T08:17:30.443Z,78.05
2017-10-17T08:18:11.045Z,78.05
2017-10-17T08:18:51.462Z,77.8
2017-10-17T08:19:32.188Z,77.61
2017-10-17T08:20:12.623Z,77.61
2017-10-17T08:20:53.207Z,77.71
2017-10-17T08:21:34.407Z,76.94
2017-10-17T08:22:14.167Z,76.84
2017-10-17T08:22:54.629Z,76.56
2017-10-17T08:23:35.131Z,76.65
2017-10-17T08:24:15.443Z,76.56
2017-10-17T08:24:57.743Z,76.56
2017-10-17T08:25:57.406Z,75.98
2017-10-17T08:26:40.754Z,75.54
2017-10-17T08:27:34.027Z,75.73
2017-10-17T08:28:15.508Z,75.54
2017-10-17T08:28:55.854Z,75.54
2017-10-17T08:29:36.438Z,75.73
2017-10-17T08:30:17.193Z,75.45
2017-10-17T08:30:57.722Z,74.77
2017-10-17T08:31:38.159Z,74.68
2017-10-17T08:32:18.600Z,75
2017-10-17T08:32:59.112Z,74.62
2017-10-17T08:33:40.498Z,74.43
2017-10-17T08:34:20.310Z,74.58
2017-10-17T08:35:00.741Z,73.94
2017-10-17T08:35:41.302Z,74.13
2017-10-17T08:36:21.791Z,74.13
2017-10-17T08:37:02.281Z,74.13
2017-10-17T08:37:42.806Z,73.56
2017-10-17T08:38:23.216Z,73.94
2017-10-17T08:39:04.005Z,73.66
2017-10-17T08:39:44.833Z,74.23
2017-10-17T08:40:26.149Z,73.94
2017-10-17T08:41:07.357Z,73.27
2017-10-17T08:41:47.764Z,73.75
2017-10-17T08:42:28.606Z,73.27
2017-10-17T08:43:09.274Z,73.85
2017-10-17T08:45:02.883Z,73.85
2017-10-17T08:45:44.356Z,73.94
2017-10-17T08:46:24.731Z,73.11
2017-10-17T08:47:05.215Z,72.99
2017-10-17T08:47:45.668Z,72.92
2017-10-17T08:48:26.510Z,73.11
2017-10-17T08:49:07.458Z,73.21
2017-10-17T08:49:48.233Z,73.41
2017-10-17T08:50:28.891Z,72.83
2017-10-17T08:51:10.378Z,73.02
2017-10-17T08:51:50.655Z,72.54
2017-10-17T08:52:31.147Z,72.16
2017-10-17T08:53:12.049Z,71.96
2017-10-17T08:53:52.579Z,71.91
2017-10-17T08:54:33.041Z,72
2017-10-17T08:55:13.593Z,71.91
2017-10-17T08:55:53.946Z,71.52
2017-10-17T08:56:34.391Z,71.33
2017-10-17T08:57:14.938Z,71.23
2017-10-17T08:57:55.371Z,71.52
2017-10-17T08:58:35.822Z,71.61
2017-10-17T08:59:16.383Z,71.42
2017-10-17T08:59:56.840Z,71.61
2017-10-17T09:00:37.352Z,71.61
2017-10-17T09:01:17.824Z,71.71
2017-10-17T09:01:58.304Z,71.14
2017-10-17T09:02:39.112Z,71.14
2017-10-17T09:03:20.419Z,71.14
2017-10-17T09:04:00.229Z,70.94
2017-10-17T09:04:40.767Z,70.98
2017-10-17T09:05:21.243Z,70.98
2017-10-17T09:06:02.084Z,70.5
2017-10-17T09:06:42.702Z,70.88
2017-10-17T09:07:23.081Z,71.08
2017-10-17T09:08:03.526Z,70.98
2017-10-17T09:08:43.955Z,70.68
2017-10-17T09:09:24.406Z,71.26
2017-10-17T09:10:04.999Z,70.5
2017-10-17T09:10:45.537Z,70.59
2017-10-17T09:11:25.967Z,70.11
2017-10-17T09:12:06.540Z,70.4
2017-10-17T09:12:46.974Z,71.08
2017-10-17T09:13:27.511Z,70.3
2017-10-17T09:14:07.884Z,70.4
2017-10-17T09:14:48.621Z,70.68
2017-10-17T09:15:29.065Z,70.59
2017-10-17T09:16:12.028Z,70.82
2017-10-17T09:16:53.255Z,70.34
2017-10-17T09:17:34.291Z,70.4
2017-10-17T09:18:15.440Z,70.68
2017-10-17T09:18:57.765Z,71.36
2017-10-17T09:19:38.306Z,70.68
2017-10-17T09:20:18.816Z,71.08
2017-10-17T09:21:00.141Z,70.78
2017-10-17T09:21:40.691Z,70.82
2017-10-17T09:22:21.190Z,71.11
2017-10-17T09:23:01.809Z,70.72
2017-10-17T09:23:44.124Z,70.53
2017-10-17T09:24:24.800Z,70.72
2017-10-17T09:25:05.265Z,70.62
2017-10-17T09:25:45.694Z,70.24
2017-10-17T09:26:26.160Z,69.95
2017-10-17T09:27:06.639Z,70.05
2017-10-17T09:27:47.179Z,70.34